SBMO/MCZ METAR and TAF weather

Enter ICAO airport designator
Station Type Date Time Source
SBMO METAR 2024/06/16 08:00 UTC NOAA

SBMO 160800Z 18003KT 9999 FEW019 SCT050 23/20 Q1015


Station Type Date Time Source
SBMO Decoded METAR 2024/06/16 08:00 UTC NOAA

Maceio Aeroporto , Brazil (SBMO) 09-31S 035-47W 115M
Jun 16, 2024 - 04:00 AM EDT / 2024.06.16 0800 UTC
Wind: from the S (180 degrees) at 3 MPH (3 KT):0
Visibility: greater than 7 mile(s):0
Sky conditions: partly cloudy
Temperature: 73 F (23 C)
Dew Point: 68 F (20 C)
Relative Humidity: 83%
Pressure (altimeter): 29.97 in. Hg (1015 hPa)
ob: SBMO 160800Z 18003KT 9999 FEW019 SCT050 23/20 Q1015
cycle: 8

Station Type Date Time Source
SBMO TAF 2024/06/16 06:47 UTC NOAA